Time;durP1;ratioP1;P1;durP2;ratioP2;P2;SDS_P1;SDS_P2;PMS_P1;PMS_P2;Temp;Humidity;BMP_temperature;BMP_pressure;BME280_temperature;BME280_humidity;BME280_pressure;Samples;Min_cycle;Max_cycle;Signal;HPM_P1;HPM_P2
2022/07/23 00:00:08;;;;;;;8.38;7.57;;;;;;;25.74;57.75;99393.63;342048;28;1169;-73
2022/07/23 00:00:20;;;;;;;8.52;7.35;;;;;;;25.77;57.69;99401.28;341385;28;1634;-73
2022/07/23 00:00:33;;;;;;;8.75;7.50;;;;;;;25.77;57.96;99401.28;342110;28;1992;-73
2022/07/23 00:00:50;;;;;;;8.55;7.63;;;;;;;25.79;57.91;99394.81;341297;28;1646;-73
2022/07/23 00:01:02;;;;;;;9.70;7.82;;;;;;;25.81;58.02;99395.47;342179;28;1331;-73
2022/07/23 00:01:14;;;;;;;11.50;8.00;;;;;;;25.81;57.90;99392.81;341645;28;2156;-73
2022/07/23 00:01:33;;;;;;;13.95;7.53;;;;;;;25.81;57.08;99392.81;342272;28;1258;-73
2022/07/23 00:01:47;;;;;;;12.10;7.32;;;;;;;25.81;57.29;99392.81;342308;28;1169;-73
2022/07/23 00:01:59;;;;;;;10.70;7.50;;;;;;;25.82;57.42;99393.69;341897;28;1541;-73
2022/07/23 00:02:11;;;;;;;8.60;7.43;;;;;;;25.83;57.18;99390.84;342114;28;1048;-73
2022/07/23 00:02:23;;;;;;;8.57;7.47;;;;;;;25.84;57.27;99400.50;341781;28;1044;-73
2022/07/23 00:02:36;;;;;;;9.13;7.10;;;;;;;25.81;57.49;99392.81;341931;28;2088;-73
2022/07/23 00:02:48;;;;;;;10.57;7.18;;;;;;;25.82;57.32;99394.50;342102;28;1241;-72
2022/07/23 00:03:00;;;;;;;12.90;7.47;;;;;;;25.83;56.88;99395.34;342032;28;1291;-72
2022/07/23 00:03:13;;;;;;;12.02;7.60;;;;;;;25.82;56.92;99394.50;342270;28;1216;-72
2022/07/23 00:03:26;;;;;;;10.32;7.25;;;;;;;25.85;57.02;99388.84;341681;28;1579;-72
2022/07/23 00:03:38;;;;;;;8.32;7.15;;;;;;;25.86;56.90;99390.53;339905;29;1629;-72
2022/07/23 00:03:51;;;;;;;8.20;7.20;;;;;;;25.89;56.62;99395.53;341075;28;1059;-72
2022/07/23 00:04:04;;;;;;;8.02;7.22;;;;;;;25.91;57.07;99393.59;340930;28;1329;-72
2022/07/23 00:04:16;;;;;;;8.20;7.32;;;;;;;25.93;56.89;99388.13;341079;28;1169;-72
2022/07/23 00:04:29;;;;;;;9.95;7.50;;;;;;;25.94;56.97;99386.28;340807;29;1292;-72
2022/07/23 00:04:41;;;;;;;10.57;7.38;;;;;;;25.95;57.16;99387.97;340891;29;1032;-72
2022/07/23 00:04:53;;;;;;;12.77;7.55;;;;;;;25.97;57.04;99381.50;341083;29;1255;-72
2022/07/23 00:05:05;;;;;;;10.63;7.43;;;;;;;25.98;56.72;99387.66;339635;29;1091;-72
2022/07/23 00:05:17;;;;;;;10.90;7.38;;;;;;;25.98;56.41;99387.66;339661;29;1079;-73
2022/07/23 00:05:30;;;;;;;10.20;7.50;;;;;;;25.98;56.33;99382.31;339687;29;1056;-73
2022/07/23 00:05:41;;;;;;;9.55;7.47;;;;;;;26.01;56.30;99388.19;339428;29;1247;-73
2022/07/23 00:05:55;;;;;;;9.05;7.20;;;;;;;26.03;56.75;99380.03;339415;29;1279;-73
2022/07/23 00:06:07;;;;;;;9.40;7.20;;;;;;;26.04;56.45;99381.72;339469;29;1085;-73
2022/07/23 00:06:21;;;;;;;8.52;7.22;;;;;;;26.04;56.39;99382.56;339503;29;1499;-73
2022/07/23 00:06:33;;;;;;;9.45;7.25;;;;;;;26.05;56.48;99383.38;340311;29;1168;-73
2022/07/23 00:06:45;;;;;;;10.60;7.40;;;;;;;26.05;56.80;99375.38;340386;29;1530;-73
2022/07/23 00:06:57;;;;;;;9.90;7.25;;;;;;;26.06;56.75;99375.25;340806;28;1814;-73
2022/07/23 00:07:09;;;;;;;8.43;7.30;;;;;;;26.04;57.24;99371.06;342258;28;1044;-73
2022/07/23 00:07:21;;;;;;;8.77;7.30;;;;;;;26.06;57.08;99380.56;341172;28;1332;-73
2022/07/23 00:07:34;;;;;;;10.05;7.45;;;;;;;26.07;57.13;99376.91;341673;28;1471;-73
2022/07/23 00:07:46;;;;;;;10.75;7.50;;;;;;;26.09;56.87;99374.91;342228;28;1841;-73
2022/07/23 00:07:58;;;;;;;11.35;7.25;;;;;;;26.10;56.85;99373.09;341567;28;1602;-73
2022/07/23 00:08:11;;;;;;;10.77;6.95;;;;;;;26.12;56.57;99373.78;340891;29;1064;-73
2022/07/23 00:08:25;;;;;;;8.70;6.90;;;;;;;26.13;56.46;99372.78;340968;29;1016;-73
2022/07/23 00:08:37;;;;;;;8.27;6.95;;;;;;;26.14;56.73;99377.13;340184;29;1792;-73
2022/07/23 00:08:50;;;;;;;9.57;7.20;;;;;;;26.16;56.78;99372.47;340701;29;1396;-73
2022/07/23 00:09:02;;;;;;;10.53;7.40;;;;;;;26.16;56.91;99369.81;340559;29;1298;-72
2022/07/23 00:09:15;;;;;;;10.05;7.03;;;;;;;26.17;56.91;99365.31;341168;29;1681;-72
2022/07/23 00:09:28;;;;;;;10.05;6.97;;;;;;;26.17;56.58;99371.47;340632;29;1613;-72
2022/07/23 00:09:40;;;;;;;9.95;7.20;;;;;;;26.18;56.37;99367.81;338735;29;1080;-72
2022/07/23 00:09:54;;;;;;;10.90;7.47;;;;;;;26.21;56.76;99372.81;338440;29;1035;-73
2022/07/23 00:10:06;;;;;;;11.03;7.43;;;;;;;26.20;56.03;99370.31;338296;29;1550;-73
2022/07/23 00:10:19;;;;;;;8.40;7.32;;;;;;;26.20;56.21;99370.31;339093;29;1802;-73
2022/07/23 00:10:32;;;;;;;8.63;7.22;;;;;;;26.20;56.30;99367.66;340415;29;1516;-73
2022/07/23 00:10:44;;;;;;;9.55;7.32;;;;;;;26.18;56.95;99367.81;339498;29;1339;-73
2022/07/23 00:10:56;;;;;;;9.00;7.22;;;;;;;26.17;57.15;99366.13;339688;29;1317;-73
2022/07/23 00:11:08;;;;;;;9.68;7.35;;;;;;;26.16;57.10;99361.81;340937;29;1903;-73
2022/07/23 00:11:21;;;;;;;9.00;7.10;;;;;;;26.16;56.88;99369.81;340988;29;1104;-73
2022/07/23 00:11:33;;;;;;;8.32;7.00;;;;;;;26.19;56.56;99363.31;340506;29;1677;-73
2022/07/23 00:11:45;;;;;;;10.15;7.30;;;;;;;26.20;56.48;99364.97;340924;28;1690;-73
2022/07/23 00:11:57;;;;;;;10.35;7.00;;;;;;;26.20;56.39;99360.50;341929;28;1338;-73
2022/07/23 00:12:09;;;;;;;10.30;6.95;;;;;;;26.22;56.56;99358.53;341689;28;1266;-73
2022/07/23 00:12:21;;;;;;;10.15;7.28;;;;;;;26.22;56.61;99357.66;342140;28;3373;-73
2022/07/23 00:12:34;;;;;;;10.98;7.28;;;;;;;26.20;56.53;99360.50;342164;28;1079;-73
2022/07/23 00:12:45;;;;;;;11.25;7.10;;;;;;;26.20;56.63;99360.50;342206;28;1037;-73
2022/07/23 00:13:03;;;;;;;12.95;7.68;;;;;;;26.21;56.27;99362.16;342209;28;1270;-73
2022/07/23 00:13:15;;;;;;;11.23;7.57;;;;;;;26.20;56.27;99355.19;342197;28;1047;-73
2022/07/23 00:13:27;;;;;;;9.32;7.20;;;;;;;26.20;56.58;99360.50;342247;28;1066;-73
2022/07/23 00:13:39;;;;;;;9.38;7.10;;;;;;;26.22;56.51;99353.19;342046;28;1757;-73
2022/07/23 00:13:53;;;;;;;8.27;6.95;;;;;;;26.23;56.37;99359.34;342479;28;1244;-73
2022/07/23 00:14:05;;;;;;;7.70;6.83;;;;;;;26.22;56.31;99358.53;340593;28;1415;-73
2022/07/23 00:14:17;;;;;;;7.88;7.07;;;;;;;26.23;56.18;99354.84;339893;29;1793;-73
2022/07/23 00:14:29;;;;;;;8.30;7.47;;;;;;;26.23;56.32;99352.19;340857;28;1739;-73
2022/07/23 00:14:41;;;;;;;8.20;7.30;;;;;;;26.24;55.89;99356.53;342333;28;1325;-73
2022/07/23 00:14:53;;;;;;;8.10;7.18;;;;;;;26.24;55.90;99351.22;342241;28;1152;-73
2022/07/23 00:15:06;;;;;;;8.15;7.25;;;;;;;26.24;56.05;99351.22;341229;28;1808;-72
2022/07/23 00:15:18;;;;;;;8.07;7.20;;;;;;;26.25;56.23;99352.88;340075;29;1733;-72
2022/07/23 00:15:30;;;;;;;7.45;6.75;;;;;;;26.27;56.37;99356.19;341919;28;1166;-72
2022/07/23 00:15:42;;;;;;;8.43;7.03;;;;;;;26.27;56.28;99350.88;342247;28;1904;-72
2022/07/23 00:15:55;;;;;;;10.15;7.20;;;;;;;26.26;56.24;99354.56;341014;28;1043;-72
2022/07/23 00:16:07;;;;;;;9.70;7.00;;;;;;;26.28;55.36;99349.06;340987;28;1531;-72
2022/07/23 00:16:19;;;;;;;8.70;6.68;;;;;;;26.29;55.77;99354.22;340765;28;1622;-72
2022/07/23 00:16:31;;;;;;;8.05;6.70;;;;;;;26.32;55.81;99353.09;339965;29;1026;-72
2022/07/23 00:16:43;;;;;;;7.60;6.80;;;;;;;26.31;56.10;99352.22;340450;28;1018;-72
2022/07/23 00:16:55;;;;;;;9.30;7.13;;;;;;;26.29;55.99;99356.88;342181;28;1221;-72
2022/07/23 00:17:07;;;;;;;9.90;7.30;;;;;;;26.28;56.15;99352.56;341042;28;1236;-73
2022/07/23 00:17:19;;;;;;;9.75;7.30;;;;;;;26.30;56.53;99361.22;340593;29;1846;-73
2022/07/23 00:17:32;;;;;;;9.63;7.18;;;;;;;26.29;57.10;99356.06;340947;28;1558;-73
2022/07/23 00:17:44;;;;;;;10.43;7.30;;;;;;;26.28;56.63;99360.56;340598;28;2588;-73
2022/07/23 00:17:56;;;;;;;9.70;7.38;;;;;;;26.27;56.29;99358.88;340808;29;1319;-73
2022/07/23 00:18:08;;;;;;;8.43;7.25;;;;;;;26.27;56.26;99361.53;339422;29;1866;-73
2022/07/23 00:18:20;;;;;;;7.85;7.05;;;;;;;26.27;56.16;99356.19;340569;29;1654;-73
2022/07/23 00:18:32;;;;;;;10.23;7.03;;;;;;;26.28;56.40;99357.06;339909;29;1765;-73
2022/07/23 00:18:44;;;;;;;10.43;7.05;;;;;;;26.27;56.51;99369.53;340165;29;1228;-73
2022/07/23 00:18:56;;;;;;;11.13;7.18;;;;;;;26.26;56.32;99364.38;340336;29;1864;-73
2022/07/23 00:19:08;;;;;;;9.00;7.13;;;;;;;26.26;56.48;99367.88;340826;29;1101;-73
2022/07/23 00:19:20;;;;;;;9.90;7.10;;;;;;;26.26;56.91;99367.88;340229;29;1822;-73
2022/07/23 00:19:32;;;;;;;9.07;7.10;;;;;;;26.26;56.21;99373.19;340852;29;1718;-73
2022/07/23 00:19:44;;;;;;;8.85;7.13;;;;;;;26.25;56.17;99365.34;340805;29;1264;-73
2022/07/23 00:19:56;;;;;;;9.07;7.07;;;;;;;26.25;56.25;99363.53;340812;29;1339;-73
2022/07/23 00:20:09;;;;;;;9.00;6.90;;;;;;;26.26;56.73;99370.53;340895;28;1614;-73
2022/07/23 00:20:21;;;;;;;7.78;6.97;;;;;;;26.27;55.98;99366.88;339747;29;1243;-73
2022/07/23 00:20:33;;;;;;;8.70;7.20;;;;;;;26.28;55.56;99371.22;339843;29;1689;-72
2022/07/23 00:20:45;;;;;;;9.50;7.10;;;;;;;26.26;55.81;99369.72;341441;28;1028;-72
2022/07/23 00:20:57;;;;;;;9.68;7.18;;;;;;;26.28;55.70;99373.06;341022;28;1318;-72
2022/07/23 00:21:09;;;;;;;9.75;7.07;;;;;;;26.27;55.65;99376.69;340519;28;1708;-72
2022/07/23 00:21:21;;;;;;;8.77;7.10;;;;;;;26.27;55.48;99372.19;339952;28;1798;-72
2022/07/23 00:21:33;;;;;;;8.20;7.10;;;;;;;26.29;55.63;99369.38;341140;28;1693;-72
2022/07/23 00:21:45;;;;;;;8.02;7.00;;;;;;;26.28;55.02;99373.88;340462;28;1804;-72
2022/07/23 00:21:57;;;;;;;9.60;7.00;;;;;;;26.29;55.54;99375.53;340045;28;1481;-72
2022/07/23 00:22:09;;;;;;;9.32;7.25;;;;;;;26.28;55.65;99363.22;340483;28;1710;-72
2022/07/23 00:22:21;;;;;;;8.15;7.30;;;;;;;26.29;55.82;99375.53;342047;28;1713;-72
2022/07/23 00:22:33;;;;;;;8.68;7.20;;;;;;;26.28;55.37;99368.53;342143;28;1091;-72
2022/07/23 00:22:52;;;;;;;8.60;7.28;;;;;;;26.29;55.25;99374.69;342260;28;1231;-72
2022/07/23 00:23:04;;;;;;;8.35;7.00;;;;;;;26.30;54.59;99376.41;341389;28;1616;-72
2022/07/23 00:23:17;;;;;;;8.35;6.70;;;;;;;26.33;54.52;99369.91;341720;28;2055;-72
2022/07/23 00:23:30;;;;;;;7.65;6.88;;;;;;;26.33;54.47;99375.22;342003;28;1893;-72
2022/07/23 00:23:42;;;;;;;7.72;6.93;;;;;;;26.31;55.10;99373.53;342226;28;1051;-72
2022/07/23 00:23:54;;;;;;;7.90;7.03;;;;;;;26.33;54.48;99375.22;342269;28;1077;-72
2022/07/23 00:24:06;;;;;;;7.75;6.90;;;;;;;26.32;55.03;99369.06;341294;28;1632;-72
2022/07/23 00:24:18;;;;;;;8.15;6.90;;;;;;;26.35;54.76;99370.56;342299;28;1043;-72
2022/07/23 00:24:30;;;;;;;7.60;6.72;;;;;;;26.35;54.59;99373.25;341105;28;1276;-72
2022/07/23 00:24:42;;;;;;;7.38;6.57;;;;;;;26.36;54.53;99375.75;341117;28;1066;-72
2022/07/23 00:25:14;;;;;;;7.53;6.82;;;;;;;26.36;54.30;99374.91;340324;28;1084;-72
2022/07/23 00:25:44;;;;;;;9.90;6.97;;;;;;;26.38;54.24;99378.25;342124;28;1058;-72
2022/07/23 00:25:57;;;;;;;10.10;7.20;;;;;;;26.38;53.78;99371.09;342013;28;1356;-72
2022/07/23 00:26:09;;;;;;;10.23;7.32;;;;;;;26.37;54.02;99376.59;341034;28;1095;-72
2022/07/23 00:26:21;;;;;;;9.35;7.32;;;;;;;26.37;54.20;99369.41;340616;28;1836;-72
2022/07/23 00:26:33;;;;;;;8.63;6.93;;;;;;;26.40;54.46;99376.25;340849;28;1758;-72
2022/07/23 00:26:44;;;;;;;7.65;6.53;;;;;;;26.42;54.05;99374.25;341135;28;1103;-72
2022/07/23 00:26:56;;;;;;;7.60;6.53;;;;;;;26.42;54.48;99374.25;341196;28;1447;-72
2022/07/23 00:27:09;;;;;;;8.77;6.63;;;;;;;26.42;53.99;99369.78;340907;28;1127;-72
2022/07/23 00:27:21;;;;;;;10.60;6.68;;;;;;;26.44;54.00;99377.59;340229;28;1810;-72
2022/07/23 00:27:33;;;;;;;10.05;6.60;;;;;;;26.43;54.06;99367.97;340885;28;1808;-72
2022/07/23 00:27:45;;;;;;;7.47;6.65;;;;;;;26.42;54.50;99368.94;340310;28;2166;-72
2022/07/23 00:28:01;;;;;;;7.82;6.93;;;;;;;26.43;54.22;99371.44;341174;28;1319;-72
2022/07/23 00:28:13;;;;;;;7.80;6.70;;;;;;;26.44;53.93;99372.28;341173;28;1231;-72
2022/07/23 00:28:25;;;;;;;7.18;6.43;;;;;;;26.45;53.67;99368.63;340285;28;1714;-72
2022/07/23 00:28:37;;;;;;;7.28;6.50;;;;;;;26.45;54.04;99363.28;341377;28;1822;-72
2022/07/23 00:28:49;;;;;;;7.22;6.50;;;;;;;26.46;54.05;99364.94;342435;28;1115;-72
2022/07/23 00:29:01;;;;;;;7.32;6.60;;;;;;;26.47;53.76;99366.63;340908;28;1744;-72
2022/07/23 00:29:14;;;;;;;7.60;6.80;;;;;;;26.46;53.65;99355.16;342458;28;1095;-72
2022/07/23 00:29:26;;;;;;;7.90;6.67;;;;;;;26.48;52.26;99360.31;340034;28;2037;-72
2022/07/23 00:29:38;;;;;;;7.53;6.40;;;;;;;26.50;51.30;99360.97;340679;29;1751;-72
2022/07/23 00:29:50;;;;;;;8.02;6.45;;;;;;;26.49;50.84;99360.16;340779;29;1291;-72
2022/07/23 00:30:02;;;;;;;7.53;6.35;;;;;;;26.51;50.13;99362.66;340032;29;1817;-72
2022/07/23 00:30:14;;;;;;;7.20;6.50;;;;;;;26.50;50.28;99358.31;339722;29;1158;-72
2022/07/23 00:30:29;;;;;;;7.15;6.45;;;;;;;26.51;50.05;99358.16;339627;29;1719;-72
2022/07/23 00:30:41;;;;;;;7.68;6.50;;;;;;;26.51;50.32;99357.31;340948;28;1823;-72
2022/07/23 00:30:53;;;;;;;7.40;6.30;;;;;;;26.52;50.00;99358.97;341874;28;1027;-72
2022/07/23 00:31:05;;;;;;;7.15;6.13;;;;;;;26.51;50.21;99360.81;340695;29;1113;-72
2022/07/23 00:31:18;;;;;;;7.07;6.38;;;;;;;26.52;49.84;99353.66;340333;29;2700;-72
2022/07/23 00:31:30;;;;;;;7.43;6.45;;;;;;;26.53;50.17;99354.50;340459;29;1591;-72
2022/07/23 00:31:43;;;;;;;7.65;6.60;;;;;;;26.51;50.15;99352.81;340244;28;1841;-72
2022/07/23 00:31:58;;;;;;;7.85;6.57;;;;;;;26.51;49.98;99358.16;340900;28;1265;-72
2022/07/23 00:32:10;;;;;;;7.20;6.50;;;;;;;26.51;50.01;99352.81;341145;28;1067;-72
2022/07/23 00:32:22;;;;;;;7.43;6.47;;;;;;;26.52;49.52;99353.66;340392;28;1901;-72
2022/07/23 00:32:57;;;;;;;6.85;6.20;;;;;;;26.52;49.40;99353.66;340788;28;1907;-72
2022/07/23 00:33:10;;;;;;;7.07;6.38;;;;;;;26.52;49.56;99351.00;339855;29;1063;-72
2022/07/23 00:33:22;;;;;;;7.20;6.47;;;;;;;26.55;49.01;99353.34;339857;29;2234;-72
2022/07/23 00:33:34;;;;;;;7.13;6.13;;;;;;;26.55;49.11;99356.00;341055;28;1818;-72
2022/07/23 00:33:46;;;;;;;8.23;6.00;;;;;;;26.55;49.19;99352.53;340535;28;2042;-72
2022/07/23 00:34:00;;;;;;;9.10;6.15;;;;;;;26.55;49.56;99357.84;340919;28;1803;-72
2022/07/23 00:34:13;;;;;;;7.70;6.05;;;;;;;26.54;49.45;99349.03;339516;29;1371;-72
2022/07/23 00:34:25;;;;;;;8.07;6.38;;;;;;;26.55;49.33;99342.69;339974;29;1706;-72
2022/07/23 00:34:37;;;;;;;7.40;6.60;;;;;;;26.56;49.00;99352.38;339888;28;1781;-72
2022/07/23 00:34:51;;;;;;;7.15;6.35;;;;;;;26.55;49.17;99356.00;340494;28;1265;-72
2022/07/23 00:35:03;;;;;;;7.72;6.10;;;;;;;26.54;48.93;99357.03;339227;29;2038;-72
2022/07/23 00:35:15;;;;;;;7.28;6.03;;;;;;;26.55;48.78;99357.84;340378;29;1547;-72
2022/07/23 00:35:30;;;;;;;7.20;6.28;;;;;;;26.57;48.86;99359.34;342167;28;1039;-72
2022/07/23 00:35:42;;;;;;;7.10;6.32;;;;;;;26.55;49.36;99358.69;340881;29;1012;-72
2022/07/23 00:35:55;;;;;;;7.18;6.47;;;;;;;26.55;49.25;99356.00;340682;29;1063;-72
2022/07/23 00:36:08;;;;;;;7.10;6.40;;;;;;;26.56;49.10;99357.69;339338;29;1294;-72
2022/07/23 00:36:21;;;;;;;7.00;6.30;;;;;;;26.56;49.49;99354.19;339462;29;1716;-72
2022/07/23 00:36:33;;;;;;;8.57;6.30;;;;;;;26.56;49.20;99355.03;341008;28;1490;-72
2022/07/23 00:36:45;;;;;;;9.32;6.30;;;;;;;26.58;49.17;99357.53;340816;28;1833;-72
2022/07/23 00:36:57;;;;;;;8.45;6.35;;;;;;;26.56;49.13;99357.69;341823;28;1285;-72
2022/07/23 00:37:09;;;;;;;8.25;6.53;;;;;;;26.55;49.28;99357.84;340694;28;1499;-72
2022/07/23 00:37:21;;;;;;;7.35;6.63;;;;;;;26.55;49.29;99357.84;341000;28;1138;-72
2022/07/23 00:37:34;;;;;;;7.28;6.47;;;;;;;26.55;49.18;99358.69;341122;28;996;-72
2022/07/23 00:37:46;;;;;;;7.80;6.40;;;;;;;26.54;49.11;99357.03;339859;29;1165;-72
2022/07/23 00:38:00;;;;;;;7.60;6.30;;;;;;;26.50;49.52;99358.31;341387;28;1400;-72
2022/07/23 00:38:13;;;;;;;6.90;6.20;;;;;;;26.52;49.68;99353.66;341219;28;1730;-72
2022/07/23 00:38:25;;;;;;;8.70;6.47;;;;;;;26.51;49.46;99357.31;340813;28;1883;-72
2022/07/23 00:38:38;;;;;;;9.82;6.50;;;;;;;26.51;49.25;99357.31;341765;28;1417;-72
2022/07/23 00:38:50;;;;;;;10.35;6.25;;;;;;;26.50;49.49;99356.50;340635;29;1257;-72
2022/07/23 00:39:03;;;;;;;7.75;5.97;;;;;;;26.50;49.53;99358.31;340613;29;1402;-72
2022/07/23 00:39:15;;;;;;;7.93;6.03;;;;;;;26.48;49.31;99358.50;340808;29;1020;-72
2022/07/23 00:39:28;;;;;;;7.50;6.10;;;;;;;26.48;49.55;99361.16;339713;29;1022;-72
2022/07/23 00:39:40;;;;;;;6.85;6.18;;;;;;;26.47;49.18;99351.47;339596;29;1865;-72
2022/07/23 00:39:52;;;;;;;6.75;6.15;;;;;;;26.47;49.19;99355.97;339442;29;1802;-72
2022/07/23 00:40:04;;;;;;;7.20;6.50;;;;;;;26.47;49.54;99353.31;340612;29;1465;-72
2022/07/23 00:40:17;;;;;;;7.07;6.28;;;;;;;26.47;49.38;99350.66;340881;29;1073;-72
2022/07/23 00:40:30;;;;;;;6.97;6.20;;;;;;;26.47;49.74;99361.31;340692;29;1073;-72
2022/07/23 00:40:42;;;;;;;7.22;6.13;;;;;;;26.47;49.33;99355.97;339702;29;1772;-72
2022/07/23 00:40:54;;;;;;;7.60;6.28;;;;;;;26.47;49.58;99359.47;339567;29;1174;-72
2022/07/23 00:41:07;;;;;;;8.15;6.15;;;;;;;26.45;49.31;99353.47;339776;29;1888;-72
2022/07/23 00:41:19;;;;;;;8.65;6.10;;;;;;;26.45;49.37;99363.28;340102;29;1091;-72
2022/07/23 00:41:31;;;;;;;7.97;6.03;;;;;;;26.43;49.42;99355.47;339812;29;1162;-72
2022/07/23 00:41:43;;;;;;;7.95;6.18;;;;;;;26.44;49.57;99356.28;339653;29;1044;-72
2022/07/23 00:41:55;;;;;;;8.07;5.93;;;;;;;26.43;49.88;99359.97;340731;28;1814;-72
2022/07/23 00:42:07;;;;;;;6.60;5.90;;;;;;;26.44;49.64;99351.81;340746;28;2219;-72
2022/07/23 00:42:19;;;;;;;6.80;6.20;;;;;;;26.45;49.56;99357.97;340695;29;1028;-72
2022/07/23 00:42:32;;;;;;;7.10;6.40;;;;;;;26.45;49.68;99352.63;340800;28;1039;-72
2022/07/23 00:42:44;;;;;;;6.90;6.20;;;;;;;26.46;50.00;99359.63;340001;29;2049;-72
2022/07/23 00:42:57;;;;;;;7.25;6.20;;;;;;;26.48;49.70;99352.31;340511;28;2258;-72
2022/07/23 00:43:09;;;;;;;8.38;6.47;;;;;;;26.47;49.63;99354.13;339488;29;1237;-72
2022/07/23 00:43:23;;;;;;;9.25;6.50;;;;;;;26.48;49.65;99357.63;339779;29;1242;-72
2022/07/23 00:43:35;;;;;;;8.68;6.43;;;;;;;26.48;49.31;99357.63;339080;29;1651;-72
2022/07/23 00:43:48;;;;;;;7.70;6.53;;;;;;;26.47;50.14;99356.81;340177;29;1441;-72
2022/07/23 00:44:23;;;;;;;7.63;6.50;;;;;;;26.48;49.61;99352.31;340564;29;1302;-72
2022/07/23 00:44:35;;;;;;;7.28;6.40;;;;;;;26.45;50.16;99357.97;341035;28;1163;-72
2022/07/23 00:44:47;;;;;;;8.98;6.40;;;;;;;26.43;49.33;99355.47;340517;29;1408;-73
2022/07/23 00:44:59;;;;;;;9.90;6.32;;;;;;;26.45;49.56;99352.63;340632;28;1791;-73
2022/07/23 00:45:11;;;;;;;9.35;6.35;;;;;;;26.43;49.54;99354.63;340502;28;1831;-72
2022/07/23 00:45:23;;;;;;;7.73;6.47;;;;;;;26.46;49.83;99356.97;341786;28;1851;-72
2022/07/23 00:45:35;;;;;;;8.80;6.53;;;;;;;26.44;49.41;99350.94;342115;28;1425;-72
2022/07/23 00:45:48;;;;;;;9.02;6.45;;;;;;;26.45;49.21;99352.63;340376;28;1791;-72
2022/07/23 00:46:00;;;;;;;7.82;6.32;;;;;;;26.47;49.64;99361.31;340592;28;1812;-72
2022/07/23 00:46:13;;;;;;;8.73;6.20;;;;;;;26.48;49.63;99353.16;340784;28;1214;-72
2022/07/23 00:46:25;;;;;;;8.52;5.90;;;;;;;26.49;49.37;99356.66;341072;28;1128;-72
2022/07/23 00:46:37;;;;;;;6.80;6.00;;;;;;;26.49;49.85;99360.16;339690;29;1717;-72
2022/07/23 00:47:06;;;;;;;7.50;6.25;;;;;;;26.49;49.83;99354.81;339705;29;1072;-72
2022/07/23 00:47:18;;;;;;;7.68;6.10;;;;;;;26.49;49.80;99359.31;339956;28;2184;-72
2022/07/23 00:47:30;;;;;;;7.00;6.00;;;;;;;26.50;49.85;99358.31;341666;28;1634;-72
2022/07/23 00:47:42;;;;;;;6.57;5.97;;;;;;;26.51;49.70;99360.00;340546;28;1791;-72
2022/07/23 00:47:54;;;;;;;6.78;6.10;;;;;;;26.51;50.00;99350.16;340738;28;1616;-72
2022/07/23 00:48:06;;;;;;;7.03;6.32;;;;;;;26.52;50.55;99358.97;341218;28;1556;-72
2022/07/23 00:48:18;;;;;;;7.10;6.40;;;;;;;26.48;51.06;99357.63;340502;28;1932;-72
2022/07/23 00:48:30;;;;;;;6.82;6.13;;;;;;;26.49;50.83;99357.47;342074;28;1030;-72
2022/07/23 00:48:42;;;;;;;7.70;6.20;;;;;;;26.47;50.90;99356.81;340433;28;1863;-72
2022/07/23 00:48:54;;;;;;;7.50;6.40;;;;;;;26.47;50.62;99355.97;341145;28;1852;-72
2022/07/23 00:49:07;;;;;;;7.90;6.53;;;;;;;26.46;50.28;99355.16;339308;29;1297;-72
2022/07/23 00:49:26;;;;;;;6.93;6.03;;;;;;;26.47;50.34;99355.97;339460;29;1104;-72
2022/07/23 00:49:37;;;;;;;7.18;6.07;;;;;;;26.47;50.73;99355.97;339283;29;1715;-72
2022/07/23 00:49:49;;;;;;;7.15;6.22;;;;;;;26.47;50.24;99355.97;340670;28;1763;-72
2022/07/23 00:50:03;;;;;;;7.22;6.20;;;;;;;26.45;50.10;99358.78;341171;28;1363;-72
2022/07/23 00:50:15;;;;;;;8.65;6.35;;;;;;;26.44;50.23;99361.63;340922;29;1074;-72
2022/07/23 00:50:28;;;;;;;8.50;6.47;;;;;;;26.45;50.24;99357.97;340990;28;1176;-72
2022/07/23 00:50:41;;;;;;;7.90;6.43;;;;;;;26.43;50.37;99366.13;340348;28;1923;-72
2022/07/23 00:50:53;;;;;;;8.50;6.60;;;;;;;26.43;50.66;99359.97;340311;28;1821;-72
2022/07/23 00:51:05;;;;;;;8.07;6.55;;;;;;;26.38;50.54;99359.59;342026;28;1253;-72
2022/07/23 00:51:17;;;;;;;7.03;6.32;;;;;;;26.38;50.51;99362.25;341146;28;1090;-72
2022/07/23 00:51:29;;;;;;;6.95;6.25;;;;;;;26.38;50.57;99357.78;340298;28;2013;-72
2022/07/23 00:51:42;;;;;;;6.90;6.20;;;;;;;26.38;50.21;99362.25;340340;29;1655;-72
2022/07/23 00:51:55;;;;;;;7.47;6.28;;;;;;;26.37;50.94;99356.09;340487;28;1265;-72
2022/07/23 00:52:07;;;;;;;7.97;6.22;;;;;;;26.38;50.90;99362.25;340526;28;1924;-72
2022/07/23 00:52:19;;;;;;;7.40;6.25;;;;;;;26.38;50.70;99359.59;341175;28;1149;-72
2022/07/23 00:52:32;;;;;;;7.03;6.28;;;;;;;26.39;50.43;99363.94;341220;28;1352;-72
2022/07/23 00:52:44;;;;;;;7.95;6.43;;;;;;;26.38;50.31;99359.59;341033;28;1194;-72
2022/07/23 00:52:56;;;;;;;7.82;6.50;;;;;;;26.37;50.66;99344.59;340584;28;1196;-72
2022/07/23 00:53:08;;;;;;;7.20;6.50;;;;;;;26.38;50.17;99356.91;341138;28;1096;-72
2022/07/23 00:53:21;;;;;;;7.03;6.32;;;;;;;26.38;50.19;99352.44;340974;28;1269;-72
2022/07/23 00:53:33;;;;;;;7.47;6.70;;;;;;;26.36;50.66;99354.44;341048;28;1099;-72
2022/07/23 00:53:45;;;;;;;7.63;6.80;;;;;;;26.35;50.72;99357.25;340542;28;2065;-72
2022/07/23 00:53:57;;;;;;;7.28;6.57;;;;;;;26.34;51.37;99363.56;340243;29;1876;-72
2022/07/23 00:54:09;;;;;;;7.18;6.47;;;;;;;26.33;51.02;99359.25;340657;29;1629;-72
2022/07/23 00:54:25;;;;;;;7.03;6.32;;;;;;;26.34;50.52;99350.25;340942;28;1647;-72
2022/07/23 00:54:38;;;;;;;7.13;6.43;;;;;;;26.33;50.54;99359.25;340427;28;1918;-72
2022/07/23 00:54:51;;;;;;;7.30;6.60;;;;;;;26.30;50.41;99355.91;341129;28;1105;-72
2022/07/23 00:55:05;;;;;;;7.32;6.63;;;;;;;26.29;50.84;99353.38;340778;29;1309;-72
2022/07/23 00:55:17;;;;;;;7.57;6.28;;;;;;;26.29;50.56;99364.03;341297;28;1199;-72
2022/07/23 00:55:30;;;;;;;7.68;6.05;;;;;;;26.27;51.18;99350.88;341040;28;1230;-72
2022/07/23 00:55:42;;;;;;;6.95;6.25;;;;;;;26.27;50.51;99356.19;340301;28;1807;-72
2022/07/23 00:55:55;;;;;;;7.38;6.57;;;;;;;26.24;50.73;99351.22;341097;28;2028;-72
2022/07/23 00:56:07;;;;;;;7.53;6.72;;;;;;;26.25;50.78;99357.38;340623;28;1617;-72
2022/07/23 00:56:19;;;;;;;7.40;6.50;;;;;;;26.24;50.77;99353.88;341167;28;1106;-72
2022/07/23 00:56:31;;;;;;;7.93;6.60;;;;;;;26.25;50.83;99347.53;340995;28;1050;-72
2022/07/23 00:56:44;;;;;;;7.15;6.35;;;;;;;26.23;50.66;99354.84;340320;28;1809;-72
2022/07/23 00:56:56;;;;;;;6.95;6.18;;;;;;;26.23;50.73;99354.84;341704;28;1825;-72
2022/07/23 00:57:08;;;;;;;7.07;6.38;;;;;;;26.23;50.71;99360.19;341920;28;1043;-72
2022/07/23 00:57:21;;;;;;;7.25;6.50;;;;;;;26.21;50.97;99351.50;342169;28;1837;-72
2022/07/23 00:57:40;;;;;;;8.20;6.40;;;;;;;26.20;51.03;99349.84;341354;28;1697;-72
2022/07/23 00:57:55;;;;;;;7.50;6.50;;;;;;;26.19;51.21;99353.50;340940;29;1079;-72
2022/07/23 00:58:08;;;;;;;7.32;6.45;;;;;;;26.18;51.11;99350.97;340834;29;1248;-72
2022/07/23 00:58:20;;;;;;;7.63;6.47;;;;;;;26.17;50.94;99352.81;340423;29;1047;-72
2022/07/23 00:58:35;;;;;;;8.00;6.80;;;;;;;26.15;51.10;99352.16;340778;29;1035;-72
2022/07/23 00:58:47;;;;;;;7.78;6.78;;;;;;;26.15;50.94;99346.81;340613;29;1517;-72
2022/07/23 00:59:00;;;;;;;8.60;6.93;;;;;;;26.15;51.02;99352.16;340841;29;1287;-72
2022/07/23 00:59:14;;;;;;;8.15;6.93;;;;;;;26.15;51.13;99357.47;340507;29;1202;-72
2022/07/23 00:59:26;;;;;;;7.72;6.68;;;;;;;26.16;51.42;99356.50;339483;29;1207;-72
2022/07/23 00:59:38;;;;;;;7.20;6.50;;;;;;;26.17;51.36;99352.00;339196;29;2122;-72
2022/07/23 00:59:51;;;;;;;7.13;6.43;;;;;;;26.17;51.35;99355.47;339649;29;1080;-72
2022/07/23 01:00:06;;;;;;;7.10;6.40;;;;;;;26.17;51.32;99355.47;340615;29;1323;-72
2022/07/23 01:00:18;;;;;;;8.40;6.60;;;;;;;26.18;51.52;99357.16;340822;28;1027;-72
2022/07/23 01:00:30;;;;;;;8.77;6.65;;;;;;;26.17;51.66;99355.47;341287;28;1235;-72
2022/07/23 01:00:42;;;;;;;8.18;6.72;;;;;;;26.19;51.59;99358.81;340932;28;1263;-72
2022/07/23 01:00:54;;;;;;;7.90;6.65;;;;;;;26.16;51.74;99359.16;340291;28;1933;-72
2022/07/23 01:01:07;;;;;;;8.63;6.88;;;;;;;26.14;51.27;99361.13;340926;29;1506;-72
2022/07/23 01:01:20;;;;;;;10.27;6.97;;;;;;;26.09;51.88;99360.75;340605;28;2193;-72
2022/07/23 01:01:32;;;;;;;8.13;6.88;;;;;;;26.06;51.91;99363.75;342387;28;1685;-72
2022/07/23 01:01:45;;;;;;;7.68;6.88;;;;;;;26.02;51.86;99359.75;342093;28;1063;-72
2022/07/23 01:01:57;;;;;;;7.82;6.85;;;;;;;26.03;51.46;99364.06;341262;28;2390;-72